createdAt,value
2018-03-23T00:01:16.558Z,5.80
2018-03-23T00:03:47.608Z,5.90
2018-03-23T00:06:18.005Z,5.90
2018-03-23T00:08:49.523Z,5.80
2018-03-23T00:11:19.864Z,5.80
2018-03-23T00:13:50.180Z,5.80
2018-03-23T00:16:20.410Z,5.80
2018-03-23T00:18:50.763Z,5.80
2018-03-23T00:21:21.363Z,5.80
2018-03-23T00:23:51.817Z,5.80
2018-03-23T00:26:22.253Z,5.80
2018-03-23T00:28:52.325Z,5.80
2018-03-23T00:31:24.131Z,5.80
2018-03-23T00:33:55.291Z,5.80
2018-03-23T00:36:26.001Z,5.80
2018-03-23T00:38:56.306Z,5.80
2018-03-23T00:41:26.745Z,5.80
2018-03-23T00:43:57.031Z,5.80
2018-03-23T00:46:27.330Z,5.80
2018-03-23T00:48:58.409Z,5.80
2018-03-23T00:51:28.836Z,5.80
2018-03-23T00:53:59.142Z,5.80
2018-03-23T00:56:30.312Z,5.80
2018-03-23T00:59:00.901Z,5.80
2018-03-23T01:01:31.734Z,5.90
2018-03-23T01:04:02.999Z,5.90
2018-03-23T01:06:33.408Z,5.90
2018-03-23T01:09:03.914Z,5.90
2018-03-23T01:11:33.997Z,5.80
2018-03-23T01:14:04.037Z,5.80
2018-03-23T01:16:34.794Z,5.70
2018-03-23T01:19:05.654Z,5.70
2018-03-23T01:21:36.947Z,5.70
2018-03-23T01:24:07.168Z,5.70
2018-03-23T01:26:38.122Z,5.70
2018-03-23T01:29:08.714Z,5.70
2018-03-23T01:31:39.039Z,5.70
2018-03-23T01:34:09.865Z,5.60
2018-03-23T01:36:39.926Z,5.60
2018-03-23T01:39:10.259Z,5.60
2018-03-23T01:41:40.273Z,5.50
2018-03-23T01:44:10.871Z,5.50
2018-03-23T01:46:41.303Z,5.50
2018-03-23T01:49:11.652Z,5.50
2018-03-23T01:51:41.918Z,5.40
2018-03-23T01:54:12.126Z,5.40
2018-03-23T01:56:43.419Z,5.40
2018-03-23T01:59:13.429Z,5.30
2018-03-23T02:01:44.155Z,5.30
2018-03-23T02:04:14.587Z,5.30
2018-03-23T02:06:45.759Z,5.40
2018-03-23T02:09:16.400Z,5.40
2018-03-23T02:11:47.151Z,5.40
2018-03-23T02:14:17.115Z,5.40
2018-03-23T02:16:47.069Z,5.40
2018-03-23T02:19:17.864Z,5.40
2018-03-23T02:21:48.191Z,5.40
2018-03-23T02:24:18.150Z,5.40
2018-03-23T02:26:49.140Z,5.40
2018-03-23T02:29:19.808Z,5.30
2018-03-23T02:31:50.897Z,5.30
2018-03-23T02:34:21.147Z,5.30
2018-03-23T02:36:51.652Z,5.40
2018-03-23T02:39:21.827Z,5.40
2018-03-23T02:41:51.941Z,5.30
2018-03-23T02:44:22.920Z,5.40
2018-03-23T02:46:53.456Z,5.30
2018-03-23T02:49:24.583Z,5.30
2018-03-23T02:51:55.027Z,5.30
2018-03-23T02:54:25.522Z,5.30
2018-03-23T02:56:56.376Z,5.30
2018-03-23T02:59:26.751Z,5.20
2018-03-23T03:01:58.080Z,5.20
2018-03-23T03:04:28.414Z,5.20
2018-03-23T03:06:58.930Z,5.10
2018-03-23T03:09:30.267Z,5.00
2018-03-23T03:12:01.556Z,5.00
2018-03-23T03:14:31.795Z,5.00
2018-03-23T03:17:02.179Z,5.00
2018-03-23T03:19:32.454Z,5.00
2018-03-23T03:22:03.245Z,5.00
2018-03-23T03:24:33.667Z,4.90
2018-03-23T03:27:03.959Z,4.80
2018-03-23T03:29:34.171Z,4.80
2018-03-23T03:32:04.882Z,4.80
2018-03-23T03:34:35.345Z,4.80
2018-03-23T03:37:05.874Z,4.70
2018-03-23T03:39:37.054Z,4.70
2018-03-23T03:42:07.744Z,4.70
2018-03-23T03:44:38.246Z,4.80
2018-03-23T03:47:08.567Z,4.80
2018-03-23T03:49:39.963Z,4.90
2018-03-23T03:52:10.486Z,4.90
2018-03-23T03:54:40.771Z,4.90
2018-03-23T03:57:11.119Z,5.00
2018-03-23T03:59:41.715Z,5.00
2018-03-23T04:02:12.974Z,5.00
2018-03-23T04:04:43.362Z,5.00
2018-03-23T04:07:14.619Z,5.00
2018-03-23T04:09:44.764Z,5.00
2018-03-23T04:12:14.991Z,5.00
2018-03-23T04:14:46.056Z,5.00
2018-03-23T04:17:16.523Z,4.90
2018-03-23T04:19:46.654Z,5.00
2018-03-23T04:22:17.068Z,4.90
2018-03-23T04:24:47.568Z,4.90
2018-03-23T04:27:17.923Z,4.90
2018-03-23T04:29:48.520Z,4.90
2018-03-23T04:32:19.143Z,4.80
2018-03-23T04:34:50.137Z,4.80
2018-03-23T04:37:20.241Z,4.80
2018-03-23T04:39:51.147Z,4.80
2018-03-23T04:42:21.810Z,4.80
2018-03-23T04:44:52.320Z,4.80
2018-03-23T04:47:22.683Z,4.80
2018-03-23T04:49:53.577Z,4.80
2018-03-23T04:52:23.992Z,4.80
2018-03-23T04:54:54.069Z,4.80
2018-03-23T04:57:24.456Z,4.80
2018-03-23T04:59:55.493Z,4.80
2018-03-23T05:02:25.737Z,4.70
2018-03-23T05:04:56.256Z,4.80
2018-03-23T05:07:26.796Z,4.80
2018-03-23T05:09:57.747Z,4.80
2018-03-23T05:12:28.816Z,4.80
2018-03-23T05:14:59.176Z,4.80
2018-03-23T05:17:29.795Z,4.80
2018-03-23T05:20:00.772Z,4.80
2018-03-23T05:22:31.314Z,4.80
2018-03-23T05:25:01.766Z,4.90
2018-03-23T05:27:32.372Z,4.90
2018-03-23T05:30:02.929Z,4.80
2018-03-23T05:32:33.330Z,4.80
2018-03-23T05:35:03.851Z,4.80
2018-03-23T05:37:34.487Z,4.80
2018-03-23T05:40:04.987Z,4.70
2018-03-23T05:42:35.252Z,4.80
2018-03-23T05:45:05.691Z,4.80
2018-03-23T05:47:36.398Z,4.80
2018-03-23T05:50:06.730Z,4.80
2018-03-23T05:52:39.259Z,4.80
2018-03-23T05:55:09.513Z,4.80
2018-03-23T05:57:40.005Z,4.80
2018-03-23T06:00:10.440Z,4.80
2018-03-23T06:02:40.784Z,4.80
2018-03-23T06:05:11.862Z,4.90
2018-03-23T06:07:42.376Z,4.90
2018-03-23T06:10:12.793Z,4.80
2018-03-23T06:12:42.975Z,4.90
2018-03-23T06:15:13.964Z,4.90
2018-03-23T06:17:44.258Z,4.90
2018-03-23T06:20:14.827Z,4.90
2018-03-23T06:22:45.253Z,4.90
2018-03-23T06:25:15.557Z,4.90
2018-03-23T06:27:45.793Z,5.00
2018-03-23T06:30:16.098Z,4.90
2018-03-23T06:32:46.235Z,4.90
2018-03-23T06:35:16.623Z,4.90
2018-03-23T06:37:47.545Z,4.90
2018-03-23T06:40:18.576Z,5.00
2018-03-23T06:42:49.839Z,4.90
2018-03-23T06:45:20.090Z,4.90
2018-03-23T06:47:50.349Z,5.00
2018-03-23T06:50:20.524Z,5.00
2018-03-23T06:54:20.972Z,5.10
2018-03-23T06:56:51.921Z,5.10
2018-03-23T06:59:22.204Z,5.10
2018-03-23T07:01:52.605Z,5.10
2018-03-23T07:04:23.674Z,5.20
2018-03-23T07:06:54.176Z,5.20
2018-03-23T07:09:24.727Z,5.20
2018-03-23T07:11:55.947Z,5.10
2018-03-23T07:14:26.195Z,5.10
2018-03-23T07:16:56.460Z,5.20
2018-03-23T07:19:26.744Z,5.10
2018-03-23T07:21:57.243Z,5.00
2018-03-23T07:24:27.572Z,5.10
2018-03-23T07:26:57.839Z,5.10
2018-03-23T07:29:28.295Z,5.10
2018-03-23T07:31:58.544Z,5.10
2018-03-23T07:34:28.692Z,5.10
2018-03-23T07:36:58.943Z,5.10
2018-03-23T07:39:29.815Z,5.00
2018-03-23T07:42:00.144Z,5.00
2018-03-23T07:44:30.372Z,5.10
2018-03-23T07:47:00.555Z,5.00
2018-03-23T07:49:31.516Z,5.10
2018-03-23T07:52:01.716Z,5.10
2018-03-23T07:54:32.604Z,5.10
2018-03-23T07:57:03.286Z,5.10
2018-03-23T07:59:34.315Z,5.20
2018-03-23T08:02:04.856Z,5.20
2018-03-23T08:04:35.798Z,5.10
2018-03-23T08:07:07.059Z,5.20
2018-03-23T08:09:37.289Z,5.20
2018-03-23T08:12:07.563Z,5.20
2018-03-23T08:14:37.814Z,5.30
2018-03-23T08:17:08.881Z,5.30
2018-03-23T08:19:38.999Z,5.20
2018-03-23T08:22:09.469Z,5.20
2018-03-23T08:24:39.675Z,5.20
2018-03-23T08:27:09.986Z,5.10
2018-03-23T08:29:40.427Z,5.10
2018-03-23T08:32:10.631Z,5.20
2018-03-23T08:34:40.772Z,5.20
2018-03-23T08:37:11.321Z,5.20
2018-03-23T08:39:41.604Z,5.20
2018-03-23T08:42:11.884Z,5.30
2018-03-23T08:44:42.359Z,5.40
2018-03-23T08:47:12.712Z,5.40
2018-03-23T08:49:42.926Z,5.50
2018-03-23T08:52:14.164Z,5.50
2018-03-23T08:54:44.433Z,5.50
2018-03-23T08:57:15.436Z,5.60
2018-03-23T08:59:45.608Z,5.60
2018-03-23T09:02:16.907Z,5.70
2018-03-23T09:04:47.110Z,5.70
2018-03-23T09:07:17.255Z,5.70
2018-03-23T09:09:47.864Z,5.70
2018-03-23T09:12:18.104Z,5.70
2018-03-23T09:14:48.398Z,5.70
2018-03-23T09:17:18.540Z,5.70
2018-03-23T09:19:48.775Z,5.70
2018-03-23T09:22:19.039Z,5.70
2018-03-23T09:24:49.183Z,5.80
2018-03-23T09:27:20.414Z,5.70
2018-03-23T09:29:51.297Z,5.80
2018-03-23T09:32:21.451Z,5.80
2018-03-23T09:34:51.796Z,5.80
2018-03-23T09:37:23.012Z,6.00
2018-03-23T09:39:53.400Z,6.00
2018-03-23T09:42:23.663Z,6.10
2018-03-23T09:44:53.864Z,6.10
2018-03-23T09:47:24.032Z,6.20
2018-03-23T09:49:55.099Z,6.30
2018-03-23T09:52:25.300Z,6.20
2018-03-23T09:54:56.328Z,6.40
2018-03-23T09:57:26.530Z,6.40
2018-03-23T09:59:57.040Z,6.50
2018-03-23T10:02:27.218Z,6.60
2018-03-23T10:04:58.236Z,6.60
2018-03-23T10:07:28.448Z,6.60
2018-03-23T10:09:58.652Z,6.70
2018-03-23T10:12:28.905Z,6.70
2018-03-23T10:14:59.310Z,6.60
2018-03-23T10:17:29.569Z,6.50
2018-03-23T10:20:00.523Z,6.50
2018-03-23T10:22:30.700Z,6.50
2018-03-23T10:25:00.932Z,6.50
2018-03-23T10:27:31.223Z,6.60
2018-03-23T10:30:01.833Z,6.50
2018-03-23T10:32:32.047Z,6.40
2018-03-23T10:35:02.307Z,6.50
2018-03-23T10:37:32.578Z,6.50
2018-03-23T10:40:02.827Z,6.50
2018-03-23T10:42:32.996Z,6.50
2018-03-23T10:45:03.507Z,6.50
2018-03-23T10:47:33.667Z,6.50
2018-03-23T10:50:03.961Z,6.60
2018-03-23T10:52:34.222Z,6.60
2018-03-23T10:55:05.348Z,6.70
2018-03-23T10:57:35.553Z,6.70
2018-03-23T11:00:06.049Z,6.80
2018-03-23T11:02:39.519Z,6.80
2018-03-23T11:05:10.519Z,6.80
2018-03-23T11:07:41.105Z,6.70
2018-03-23T11:10:12.162Z,6.70
2018-03-23T11:12:42.551Z,6.70
2018-03-23T11:15:12.917Z,6.70
2018-03-23T11:17:43.154Z,6.70
2018-03-23T11:20:13.379Z,6.70
2018-03-23T11:22:43.693Z,6.70
2018-03-23T11:25:14.093Z,6.70
2018-03-23T11:27:45.219Z,6.70
2018-03-23T11:30:16.660Z,6.80
2018-03-23T11:32:46.842Z,6.80
2018-03-23T11:35:17.114Z,6.80
2018-03-23T11:37:47.499Z,6.80
2018-03-23T11:40:17.743Z,6.90
2018-03-23T11:42:48.031Z,7.00
2018-03-23T11:45:18.568Z,7.10
2018-03-23T11:47:48.948Z,7.10
2018-03-23T11:50:19.889Z,7.10
2018-03-23T11:52:50.521Z,7.10
2018-03-23T11:55:21.554Z,7.10
2018-03-23T11:57:52.835Z,7.20
2018-03-23T12:00:23.524Z,7.20
2018-03-23T12:02:53.935Z,7.40
2018-03-23T12:05:24.315Z,7.60
2018-03-23T12:07:55.684Z,7.70
2018-03-23T12:10:26.273Z,7.70
2018-03-23T12:12:56.684Z,7.70
2018-03-23T12:15:27.063Z,7.70
2018-03-23T12:17:57.266Z,7.70
2018-03-23T12:20:28.680Z,7.60
2018-03-23T12:22:58.938Z,7.60
2018-03-23T12:25:29.983Z,7.60
2018-03-23T12:28:01.016Z,7.70
2018-03-23T12:30:32.053Z,7.70
2018-03-23T12:33:02.252Z,7.70
2018-03-23T12:35:32.759Z,7.70
2018-03-23T12:38:03.804Z,7.70
2018-03-23T12:40:34.077Z,7.80
2018-03-23T12:43:04.351Z,7.70
2018-03-23T12:45:35.193Z,7.70
2018-03-23T12:48:05.721Z,7.60
2018-03-23T12:50:35.971Z,7.70
2018-03-23T12:53:06.144Z,7.70
2018-03-23T12:55:36.316Z,7.70
2018-03-23T12:58:07.282Z,7.70
2018-03-23T13:00:38.522Z,7.70
2018-03-23T13:03:08.746Z,7.70
2018-03-23T13:05:39.751Z,7.70
2018-03-23T13:08:09.948Z,7.70
2018-03-23T13:10:40.480Z,7.70
2018-03-23T13:13:10.689Z,7.70
2018-03-23T13:15:40.933Z,7.70
2018-03-23T13:18:11.115Z,7.60
2018-03-23T13:20:42.640Z,7.60
2018-03-23T13:23:13.233Z,7.60
2018-03-23T13:25:43.623Z,7.60
2018-03-23T13:28:14.631Z,7.50
2018-03-23T13:30:45.223Z,7.50
2018-03-23T13:33:15.539Z,7.50
2018-03-23T13:35:45.829Z,7.40
2018-03-23T13:38:16.325Z,7.50
2018-03-23T13:40:46.666Z,7.50
2018-03-23T13:43:16.910Z,7.50
2018-03-23T13:45:47.156Z,7.40
2018-03-23T13:48:18.389Z,7.30
2018-03-23T13:50:48.763Z,7.30
2018-03-23T13:53:19.281Z,7.40
2018-03-23T13:55:49.495Z,7.40
2018-03-23T13:58:19.827Z,7.40
2018-03-23T14:00:54.524Z,7.40
2018-03-23T14:03:24.850Z,7.40
2018-03-23T14:05:55.162Z,7.40
2018-03-23T14:08:26.648Z,7.50
2018-03-23T14:10:57.195Z,7.50
2018-03-23T14:13:27.568Z,7.40
2018-03-23T14:15:58.973Z,7.40
2018-03-23T14:18:29.272Z,7.40
2018-03-23T14:20:59.471Z,7.40
2018-03-23T14:23:30.487Z,7.40
2018-03-23T14:26:00.689Z,7.40
2018-03-23T14:28:31.169Z,7.40
2018-03-23T14:31:02.182Z,7.30
2018-03-23T14:33:32.332Z,7.30
2018-03-23T14:36:03.365Z,7.20
2018-03-23T14:38:34.291Z,7.30
2018-03-23T14:41:05.605Z,7.20
2018-03-23T14:43:35.827Z,7.20
2018-03-23T14:46:06.931Z,7.20
2018-03-23T14:48:37.124Z,7.20
2018-03-23T14:51:07.327Z,7.30
2018-03-23T14:53:37.608Z,7.30
2018-03-23T14:56:08.112Z,7.20
2018-03-23T14:58:43.328Z,7.20
2018-03-23T15:01:13.505Z,7.20
2018-03-23T15:03:43.983Z,7.20
2018-03-23T15:06:14.144Z,7.20
2018-03-23T15:08:44.413Z,7.10
2018-03-23T15:11:16.022Z,7.20
2018-03-23T15:13:46.198Z,7.20
2018-03-23T15:16:17.143Z,7.20
2018-03-23T15:18:47.352Z,7.20
2018-03-23T15:21:17.479Z,7.10
2018-03-23T15:23:47.728Z,7.10
2018-03-23T15:26:18.631Z,7.10
2018-03-23T15:28:48.958Z,7.10
2018-03-23T15:31:19.168Z,7.10
2018-03-23T15:33:49.635Z,7.20
2018-03-23T15:36:19.811Z,7.20
2018-03-23T15:38:50.774Z,7.20
2018-03-23T15:41:21.155Z,7.10
2018-03-23T15:43:51.374Z,7.20
2018-03-23T15:46:22.939Z,7.30
2018-03-23T15:48:53.112Z,7.30
2018-03-23T15:51:23.368Z,7.30
2018-03-23T15:53:54.271Z,7.10
2018-03-23T15:56:24.453Z,7.10
2018-03-23T15:58:54.917Z,7.20
2018-03-23T16:01:25.318Z,7.10
2018-03-23T16:03:55.544Z,7.10
2018-03-23T16:06:25.729Z,7.10
2018-03-23T16:08:56.008Z,7.10
2018-03-23T16:11:26.354Z,7.10
2018-03-23T16:13:56.725Z,7.20
2018-03-23T16:16:27.266Z,7.10
2018-03-23T16:18:57.495Z,7.10
2018-03-23T16:21:27.683Z,7.10
2018-03-23T16:23:57.881Z,7.10
2018-03-23T16:26:28.388Z,7.00
2018-03-23T16:28:58.590Z,7.00
2018-03-23T16:31:28.799Z,7.00
2018-03-23T16:33:59.020Z,7.00
2018-03-23T16:36:29.543Z,7.00
2018-03-23T16:39:00.129Z,7.10
2018-03-23T16:41:30.495Z,7.00
2018-03-23T16:44:00.727Z,7.10
2018-03-23T16:46:31.408Z,7.10
2018-03-23T16:49:01.788Z,7.10
2018-03-23T16:51:32.058Z,7.20
2018-03-23T16:54:02.715Z,7.10
2018-03-23T16:56:33.696Z,7.00
2018-03-23T16:59:03.948Z,7.00
2018-03-23T17:01:35.431Z,7.00
2018-03-23T17:04:06.764Z,7.00
2018-03-23T17:06:37.096Z,7.00
2018-03-23T17:09:08.174Z,7.00
2018-03-23T17:11:38.714Z,7.00
2018-03-23T17:14:08.891Z,7.00
2018-03-23T17:16:40.063Z,7.10
2018-03-23T17:19:10.288Z,7.10
2018-03-23T17:21:40.567Z,7.00
2018-03-23T17:24:10.910Z,6.90
2018-03-23T17:26:41.995Z,6.90
2018-03-23T17:29:12.326Z,6.90
2018-03-23T17:31:42.626Z,6.90
2018-03-23T17:34:13.343Z,6.90
2018-03-23T17:36:44.468Z,6.80
2018-03-23T17:39:15.428Z,6.90
2018-03-23T17:43:16.034Z,6.90
2018-03-23T17:45:47.129Z,6.80
2018-03-23T17:48:17.600Z,6.80
2018-03-23T17:50:47.844Z,6.80
2018-03-23T17:53:19.766Z,6.70
2018-03-23T17:55:50.006Z,6.70
2018-03-23T17:58:21.289Z,6.70
2018-03-23T18:00:51.464Z,6.70
2018-03-23T18:03:21.693Z,6.70
2018-03-23T18:05:52.243Z,6.60
2018-03-23T18:10:54.523Z,6.60
2018-03-23T18:13:24.719Z,6.60
2018-03-23T18:15:54.885Z,6.60
2018-03-23T18:18:25.964Z,6.60
2018-03-23T18:20:56.447Z,6.60
2018-03-23T18:23:27.054Z,6.50
2018-03-23T18:27:26.398Z,6.50
2018-03-23T18:29:56.673Z,6.50
2018-03-23T18:32:27.327Z,6.40
2018-03-23T18:34:57.862Z,6.40
2018-03-23T18:37:28.058Z,6.40
2018-03-23T18:41:27.491Z,6.40
2018-03-23T18:43:58.091Z,6.40
2018-03-23T18:46:28.346Z,6.30
2018-03-23T18:48:58.600Z,6.40
2018-03-23T18:51:28.970Z,6.40
2018-03-23T18:53:59.167Z,6.40
2018-03-23T18:56:30.369Z,6.30
2018-03-23T18:59:00.631Z,6.40
2018-03-23T19:01:30.940Z,6.30
2018-03-23T19:04:01.225Z,6.30
2018-03-23T19:06:31.581Z,6.30
2018-03-23T19:09:02.100Z,6.30
2018-03-23T19:11:33.280Z,6.30
2018-03-23T19:14:04.078Z,6.30
2018-03-23T19:16:34.364Z,6.30
2018-03-23T19:19:04.742Z,6.30
2018-03-23T19:21:35.128Z,6.30
2018-03-23T19:24:05.733Z,6.30
2018-03-23T19:26:35.996Z,6.30
2018-03-23T19:29:06.407Z,6.30
2018-03-23T19:31:36.832Z,6.30
2018-03-23T19:34:07.409Z,6.30
2018-03-23T19:36:37.656Z,6.20
2018-03-23T19:39:08.048Z,6.20
2018-03-23T19:41:38.464Z,6.20
2018-03-23T19:44:09.080Z,6.20
2018-03-23T19:46:39.332Z,6.20
2018-03-23T19:49:09.805Z,6.20
2018-03-23T19:51:40.042Z,6.20
2018-03-23T19:54:10.930Z,6.20
2018-03-23T19:56:41.116Z,6.30
2018-03-23T19:59:11.567Z,6.30
2018-03-23T20:01:41.865Z,6.20
2018-03-23T20:04:12.358Z,6.20
2018-03-23T20:06:43.502Z,6.20
2018-03-23T20:09:14.739Z,6.20
2018-03-23T20:11:44.952Z,6.20
2018-03-23T20:14:15.472Z,6.20
2018-03-23T20:16:45.726Z,6.20
2018-03-23T20:19:15.905Z,6.20
2018-03-23T20:21:46.595Z,6.20
2018-03-23T20:24:21.346Z,6.20
2018-03-23T20:26:51.554Z,6.20
2018-03-23T20:29:22.594Z,6.20
2018-03-23T20:31:59.031Z,6.20
2018-03-23T20:34:29.380Z,6.20
2018-03-23T20:37:00.322Z,6.20
2018-03-23T20:39:30.983Z,6.20
2018-03-23T20:42:01.850Z,6.10
2018-03-23T20:44:32.200Z,6.10
2018-03-23T20:47:02.674Z,6.10
2018-03-23T20:49:33.192Z,6.10
2018-03-23T20:52:03.422Z,6.10
2018-03-23T20:54:34.952Z,6.00
2018-03-23T20:57:05.553Z,6.00
2018-03-23T20:59:35.718Z,6.00
2018-03-23T21:02:06.179Z,5.90
2018-03-23T21:04:37.903Z,5.90
2018-03-23T21:07:08.475Z,5.90
2018-03-23T21:09:39.748Z,5.90
2018-03-23T21:12:10.210Z,5.90
2018-03-23T21:14:41.193Z,5.90
2018-03-23T21:17:11.391Z,5.90
2018-03-23T21:19:41.690Z,5.90
2018-03-23T21:22:11.931Z,5.90
2018-03-23T21:24:42.483Z,5.90
2018-03-23T21:27:12.814Z,5.80
2018-03-23T21:29:43.072Z,5.80
2018-03-23T21:32:14.142Z,5.80
2018-03-23T21:34:44.604Z,5.80
2018-03-23T21:37:14.757Z,5.80
2018-03-23T21:39:45.744Z,5.80
2018-03-23T21:42:16.013Z,5.80
2018-03-23T21:44:46.800Z,5.80
2018-03-23T21:47:17.099Z,5.80
2018-03-23T21:49:47.299Z,5.80
2018-03-23T21:52:17.704Z,5.80
2018-03-23T21:54:48.917Z,5.80
2018-03-23T21:57:19.175Z,5.80
2018-03-23T21:59:49.525Z,5.80
2018-03-23T22:02:19.781Z,5.80
2018-03-23T22:04:51.241Z,5.80
2018-03-23T22:07:22.926Z,5.80
2018-03-23T22:09:54.126Z,5.80
2018-03-23T22:12:24.482Z,5.80
2018-03-23T22:14:55.976Z,5.80
2018-03-23T22:17:26.169Z,5.70
2018-03-23T22:19:57.093Z,5.80
2018-03-23T22:22:27.275Z,5.80
2018-03-23T22:24:57.971Z,5.80
2018-03-23T22:27:28.890Z,5.80
2018-03-23T22:29:59.035Z,5.80
2018-03-23T22:32:30.121Z,5.80
2018-03-23T22:35:00.639Z,5.70
2018-03-23T22:37:30.928Z,5.80
2018-03-23T22:40:02.008Z,5.80
2018-03-23T22:42:32.416Z,5.80
2018-03-23T22:45:03.162Z,5.80
2018-03-23T22:47:33.811Z,5.80
2018-03-23T22:50:04.208Z,5.80
2018-03-23T22:52:35.583Z,5.80
2018-03-23T22:55:06.511Z,5.80
2018-03-23T22:57:37.123Z,5.80
2018-03-23T23:00:07.780Z,5.90
2018-03-23T23:02:38.188Z,5.80
2018-03-23T23:05:09.811Z,5.80
2018-03-23T23:09:09.514Z,5.80
2018-03-23T23:11:39.672Z,5.80
2018-03-23T23:14:10.478Z,5.80
2018-03-23T23:16:41.586Z,5.80
2018-03-23T23:19:12.065Z,5.80
2018-03-23T23:21:42.365Z,5.80
2018-03-23T23:24:12.957Z,5.80
2018-03-23T23:26:44.882Z,5.70
2018-03-23T23:29:16.902Z,5.70
2018-03-23T23:31:47.252Z,5.70
2018-03-23T23:34:17.601Z,5.70
2018-03-23T23:36:48.171Z,5.70
2018-03-23T23:39:18.779Z,5.70
2018-03-23T23:41:49.249Z,5.70
2018-03-23T23:44:20.282Z,5.70
2018-03-23T23:46:51.192Z,5.70
2018-03-23T23:49:22.564Z,5.70
2018-03-23T23:51:53.326Z,5.70
2018-03-23T23:54:23.752Z,5.70
2018-03-23T23:56:54.143Z,5.70
2018-03-23T23:59:24.999Z,5.70
